Terminal Aerodrome Forecast
Issued by NWS Knoxville/Tri Cities, TN

Home | Current Version | Previous Version | Text Only | Print | Product List | Glossary On
Versions: 1 2 3 4 5 6 7 8 9 10 11 12 13 14 15 16 17 18 19 20 21
000
FTUS44 KMRX 270213 AAB
TAFTRI
TAF AMD
KTRI 270213Z 2702/2724 VRB03KT P6SM SCT026 OVC040
      TEMPO 2702/2706 4SM -RA OVC026
     FM270600 VRB03KT 4SM BR VCSH BKN008 OVC015
     FM271300 VRB03KT P6SM OVC022
     FM271600 27007KT P6SM BKN035
     FM272100 26009KT P6SM SCT040 BKN050=

USA.gov is the U.S. government's official web portal to all federal, state and local government web resources and services.